Time;durP1;ratioP1;P1;durP2;ratioP2;P2;SDS_P1;SDS_P2;PMS_P1;PMS_P2;Temp;Humidity;BMP_temperature;BMP_pressure;BME280_temperature;BME280_humidity;BME280_pressure;Samples;Min_cycle;Max_cycle;Signal;HPM_P1;HPM_P2
2021/04/12 00:00:28;;;;;;;18.00;9.65;;;;;;;22.61;17.93;95033.72;5075982;28;20045;-42
2021/04/12 00:03:41;;;;;;;14.98;8.77;;;;;;;22.28;18.15;95028.78;5058790;28;20049;-42
2021/04/12 00:06:24;;;;;;;14.55;9.15;;;;;;;22.92;17.64;95032.19;5021970;28;20053;-42
2021/04/12 00:09:22;;;;;;;14.15;8.98;;;;;;;23.46;17.04;95036.72;5060619;28;20056;-42
2021/04/12 00:12:16;;;;;;;12.70;8.75;;;;;;;21.85;18.63;95030.34;5076319;28;20057;-46
2021/04/12 00:14:51;;;;;;;13.50;8.65;;;;;;;22.51;18.00;95034.25;5065104;28;20044;-42
2021/04/12 00:17:32;;;;;;;14.52;9.20;;;;;;;22.39;18.19;95034.38;5078490;28;20051;-42
2021/04/12 00:20:21;;;;;;;15.05;9.30;;;;;;;23.07;17.73;95034.00;5068163;28;20048;-43
2021/04/12 00:23:15;;;;;;;12.73;8.63;;;;;;;22.49;18.54;95041.06;5056990;28;20366;-42
2021/04/12 00:25:48;;;;;;;12.45;8.27;;;;;;;22.32;18.85;95031.53;5022547;28;20059;-43
2021/04/12 00:28:43;;;;;;;12.88;8.65;;;;;;;22.39;18.62;95037.03;5058078;28;20474;-41
2021/04/12 00:31:41;;;;;;;13.20;9.20;;;;;;;22.34;18.63;95039.94;5057983;28;20048;-43
2021/04/12 00:34:21;;;;;;;15.45;9.48;;;;;;;22.47;18.62;95036.09;5057724;28;20059;-42
2021/04/12 00:37:06;;;;;;;12.80;8.73;;;;;;;22.12;18.65;95036.00;5058307;28;20052;-43
2021/04/12 00:39:44;;;;;;;15.32;8.90;;;;;;;21.66;19.19;95032.13;5057839;28;20476;-44
2021/04/12 00:42:42;;;;;;;14.02;8.57;;;;;;;22.47;18.45;95044.06;5065475;28;20052;-43
2021/04/12 00:45:47;;;;;;;11.82;8.80;;;;;;;22.29;18.81;95032.22;5095335;28;20064;-42
2021/04/12 00:48:40;;;;;;;14.63;8.40;;;;;;;23.43;17.78;95029.41;5077639;28;20048;-42
2021/04/12 00:51:16;;;;;;;14.57;8.70;;;;;;;22.28;19.16;95028.78;5094463;28;20439;-43
2021/04/12 00:54:07;;;;;;;15.35;8.63;;;;;;;22.10;19.29;95028.34;5077823;28;20044;-42
2021/04/12 00:56:47;;;;;;;13.35;9.07;;;;;;;21.88;19.56;95020.94;5060736;28;20055;-43
2021/04/12 00:59:32;;;;;;;16.00;10.35;;;;;;;21.43;19.88;95022.03;5092220;28;20451;-42
2021/04/12 01:02:21;;;;;;;16.88;10.75;;;;;;;22.24;18.87;95019.16;5075271;28;20060;-41
2021/04/12 01:05:07;;;;;;;15.55;10.30;;;;;;;22.06;19.05;95019.50;5058394;28;20056;-44
2021/04/12 01:07:40;;;;;;;12.93;8.95;;;;;;;22.60;18.48;95021.53;5057109;28;20052;-43
2021/04/12 01:10:07;;;;;;;15.32;9.07;;;;;;;22.21;19.04;95017.19;5084824;28;20063;-43
2021/04/12 01:13:15;;;;;;;18.15;9.70;;;;;;;21.51;19.69;95020.31;5095379;28;20055;-41
2021/04/12 01:16:13;;;;;;;15.60;9.98;;;;;;;21.52;19.50;95000.59;5045350;28;20044;-42
2021/04/12 01:19:01;;;;;;;14.55;9.18;;;;;;;21.90;19.35;95018.69;5057277;28;20048;-42
2021/04/12 01:22:21;;;;;;;15.25;8.50;;;;;;;21.81;19.53;95012.75;5061625;28;20058;-43
2021/04/12 01:25:30;;;;;;;12.10;8.35;;;;;;;21.74;19.48;95017.88;5095204;28;20044;-43
2021/04/12 01:28:28;;;;;;;14.63;8.27;;;;;;;22.18;18.82;95021.31;5095221;28;20044;-43
2021/04/12 01:31:32;;;;;;;13.35;8.45;;;;;;;22.01;19.03;95010.97;5079022;28;20045;-43
2021/04/12 01:34:20;;;;;;;15.00;8.65;;;;;;;21.53;19.62;95018.88;5074044;28;20445;-43
2021/04/12 01:37:02;;;;;;;16.33;10.25;;;;;;;21.90;19.42;95013.38;5057251;28;20072;-43
2021/04/12 01:39:29;;;;;;;19.15;10.50;;;;;;;21.80;19.27;95011.19;5074343;28;20063;-43
2021/04/12 01:42:04;;;;;;;15.45;8.98;;;;;;;21.48;19.50;95026.31;5075000;28;20075;-43
2021/04/12 01:45:15;;;;;;;13.05;7.90;;;;;;;22.51;18.57;95023.59;5079530;28;20473;-43
2021/04/12 01:48:01;;;;;;;12.32;8.82;;;;;;;22.25;19.00;95026.03;5077428;28;20051;-42
2021/04/12 01:50:35;;;;;;;11.52;7.53;;;;;;;21.24;20.08;95027.19;5083327;28;20048;-43
2021/04/12 01:53:26;;;;;;;12.02;7.68;;;;;;;21.52;19.66;95017.31;5074666;28;20044;-43
2021/04/12 01:56:17;;;;;;;10.73;7.30;;;;;;;21.27;19.78;95013.19;5073879;28;20045;-41
2021/04/12 01:58:54;;;;;;;9.65;6.45;;;;;;;21.70;19.40;95017.78;5056768;28;20055;-43
2021/04/12 02:02:12;;;;;;;10.68;6.93;;;;;;;22.05;18.96;95012.63;5056131;28;20049;-43
2021/04/12 02:04:46;;;;;;;11.88;7.28;;;;;;;22.37;18.89;95017.94;5009955;28;20065;-43
2021/04/12 02:07:34;;;;;;;15.90;8.05;;;;;;;21.18;19.96;95015.22;5008416;28;20054;-43
2021/04/12 02:10:32;;;;;;;12.00;7.85;;;;;;;22.23;18.83;95017.63;5047233;28;20094;-43
2021/04/12 02:13:20;;;;;;;12.02;7.50;;;;;;;21.28;19.60;95017.41;5077550;28;20121;-42
2021/04/12 02:16:15;;;;;;;10.93;7.20;;;;;;;21.77;19.53;95009.22;5076867;28;20040;-42
2021/04/12 02:19:06;;;;;;;12.68;7.60;;;;;;;21.67;19.57;95013.16;5071722;28;20048;-43
2021/04/12 02:22:18;;;;;;;11.23;8.10;;;;;;;22.05;19.10;95001.97;5057039;28;20057;-43
2021/04/12 02:24:57;;;;;;;12.10;7.63;;;;;;;20.63;21.11;95003.38;5050900;28;20052;-43
2021/04/12 02:27:32;;;;;;;12.35;9.38;;;;;;;21.99;19.74;95002.53;5074290;28;20366;-43
2021/04/12 02:29:59;;;;;;;13.55;8.77;;;;;;;20.86;20.79;94996.47;5074135;28;20514;-45
2021/04/12 02:32:45;;;;;;;13.15;8.93;;;;;;;20.94;20.59;94997.44;5074454;28;20056;-41
2021/04/12 02:35:30;;;;;;;13.20;8.18;;;;;;;22.21;19.44;94993.22;5056764;28;20426;-43
2021/04/12 02:38:09;;;;;;;13.70;7.57;;;;;;;21.35;20.35;94993.69;5056592;28;20045;-41
2021/04/12 02:40:55;;;;;;;11.48;7.43;;;;;;;21.38;20.23;94990.34;5074254;28;20048;-43
2021/04/12 02:43:53;;;;;;;13.23;9.32;;;;;;;21.32;20.51;94986.38;5080269;28;20048;-44
2021/04/12 02:46:58;;;;;;;16.45;11.02;;;;;;;19.93;21.84;94989.38;5094117;28;20064;-41
2021/04/12 02:49:49;;;;;;;14.85;9.77;;;;;;;20.81;20.91;94980.75;5087760;28;20048;-41
2021/04/12 02:52:31;;;;;;;15.30;10.15;;;;;;;21.01;20.56;94988.88;5078449;28;20054;-42
2021/04/12 02:55:20;;;;;;;15.07;10.77;;;;;;;22.13;19.59;94982.41;5080436;28;20047;-43
2021/04/12 02:58:15;;;;;;;12.15;9.98;;;;;;;21.23;20.40;94983.88;5097658;28;20048;-42
2021/04/12 03:00:48;;;;;;;13.75;9.95;;;;;;;20.75;20.92;94983.97;5097934;28;20077;-44
2021/04/12 03:03:21;;;;;;;;;;;;;;;21.33;20.31;94981.81;5098277;28;20052;-43
2021/04/12 03:06:33;;;;;;;14.45;8.75;;;;;;;20.22;21.66;94985.75;5097990;28;19912;-42
2021/04/12 03:09:19;;;;;;;13.10;8.30;;;;;;;21.78;19.86;94981.50;5055373;28;20458;-42
2021/04/12 03:11:55;;;;;;;10.27;7.32;;;;;;;20.80;20.95;94981.06;5077445;28;20059;-43
2021/04/12 03:14:37;;;;;;;10.43;7.22;;;;;;;21.79;19.89;94981.16;5073910;28;20450;-43
2021/04/12 03:17:13;;;;;;;9.02;6.95;;;;;;;20.90;21.07;94991.25;5097397;28;20047;-42
2021/04/12 03:20:31;;;;;;;10.85;7.25;;;;;;;20.72;20.85;94987.31;5084988;28;20098;-44
2021/04/12 03:23:22;;;;;;;10.25;6.50;;;;;;;20.96;20.58;94984.59;5044559;28;20051;-42
2021/04/12 03:26:14;;;;;;;11.23;7.43;;;;;;;20.41;20.87;94982.59;5077069;28;20049;-42
2021/04/12 03:28:57;;;;;;;9.57;6.50;;;;;;;21.23;20.17;94988.38;5077112;28;20041;-42
2021/04/12 03:31:51;;;;;;;12.07;6.93;;;;;;;21.12;20.14;94982.78;5082542;28;20066;-42
2021/04/12 03:34:28;;;;;;;10.23;6.93;;;;;;;21.02;20.34;94983.25;5097089;28;20055;-42
2021/04/12 03:37:23;;;;;;;11.43;6.80;;;;;;;21.41;19.97;94981.69;5078974;28;20048;-42
2021/04/12 03:39:54;;;;;;;11.90;6.38;;;;;;;21.94;19.57;94984.94;5097101;28;20064;-43
2021/04/12 03:42:46;;;;;;;9.30;6.55;;;;;;;21.48;19.98;94987.19;5078907;28;20067;-43
2021/04/12 03:45:17;;;;;;;10.43;6.63;;;;;;;21.25;20.24;94972.88;5076384;28;20454;-42
2021/04/12 03:47:58;;;;;;;10.38;7.07;;;;;;;20.88;20.58;94978.31;5059080;28;20063;-42
2021/04/12 03:50:40;;;;;;;8.90;6.13;;;;;;;21.53;19.68;94976.31;5076619;28;20431;-41
2021/04/12 03:53:46;;;;;;;8.32;6.53;;;;;;;20.27;21.31;94980.22;5076512;28;20048;-43
2021/04/12 03:56:31;;;;;;;13.63;7.03;;;;;;;21.73;19.65;94968.44;5058584;28;20040;-42
2021/04/12 03:59:00;;;;;;;10.65;6.70;;;;;;;20.62;20.94;94969.94;5058644;28;20052;-43
2021/04/12 04:01:39;;;;;;;10.27;6.10;;;;;;;21.23;20.02;94962.59;5076612;28;20375;-44
2021/04/12 04:04:06;;;;;;;9.90;6.35;;;;;;;20.26;21.06;94963.53;5076072;28;20048;-44
2021/04/12 04:06:57;;;;;;;9.82;6.32;;;;;;;19.88;22.03;94963.84;5076419;28;20071;-45
2021/04/12 04:09:46;;;;;;;9.00;5.80;;;;;;;20.53;21.67;94972.72;5089584;28;20059;-43
2021/04/12 04:12:48;;;;;;;9.15;6.30;;;;;;;22.28;19.66;94961.44;5096511;28;20055;-42
2021/04/12 04:15:41;;;;;;;8.20;5.22;;;;;;;27.57;15.29;94966.84;5010439;28;20053;-44
2021/04/12 04:18:56;;;;;;;10.18;5.97;;;;;;;29.42;13.46;94962.13;5072177;28;20043;-42
2021/04/12 04:21:41;;;;;;;9.00;5.80;;;;;;;30.56;12.73;94966.75;5021457;28;20084;-45
2021/04/12 04:24:46;;;;;;;11.65;6.95;;;;;;;30.45;12.25;94971.47;5064243;28;20052;-46
2021/04/12 04:27:57;;;;;;;11.60;8.00;;;;;;;26.62;15.63;94973.31;5095808;28;20052;-41
2021/04/12 04:30:55;;;;;;;9.82;7.53;;;;;;;26.41;15.50;94976.63;5027446;28;20060;-42
2021/04/12 04:33:31;;;;;;;8.88;6.82;;;;;;;25.43;16.10;94969.94;5094205;28;20047;-42
2021/04/12 04:36:02;;;;;;;11.02;7.15;;;;;;;23.24;18.24;94977.59;5095951;28;20054;-41
2021/04/12 04:39:07;;;;;;;11.17;7.37;;;;;;;22.65;19.05;94975.97;5077984;28;20055;-42
2021/04/12 04:42:16;;;;;;;13.65;7.47;;;;;;;20.82;21.12;94974.34;5096228;28;20281;-43
2021/04/12 04:44:53;;;;;;;10.05;7.47;;;;;;;20.37;21.68;94971.81;5057496;28;20055;-44
2021/04/12 04:47:20;;;;;;;12.18;7.70;;;;;;;19.47;22.56;94985.16;5077887;28;20051;-49
2021/04/12 04:49:55;;;;;;;11.30;7.30;;;;;;;19.10;22.97;94969.91;5096038;28;20047;-43
2021/04/12 04:52:46;;;;;;;13.60;8.02;;;;;;;19.04;23.19;94973.84;5078098;28;20050;-44
2021/04/12 04:56:00;;;;;;;12.25;7.28;;;;;;;19.85;22.34;94979.66;5077864;28;20040;-43
2021/04/12 04:58:37;;;;;;;13.10;7.55;;;;;;;18.89;23.54;94978.97;5069389;22;20056;-43
2021/04/12 05:01:34;;;;;;;8.57;6.10;;;;;;;19.39;22.37;94986.78;5057603;28;20057;-42
2021/04/12 05:04:16;;;;;;;10.65;6.32;;;;;;;19.31;22.88;94987.66;5057837;28;20053;-42
2021/04/12 05:07:21;;;;;;;14.13;7.57;;;;;;;19.17;23.34;94993.22;5075265;28;20063;-42
2021/04/12 05:09:59;;;;;;;15.75;8.27;;;;;;;19.05;23.02;94990.53;5074506;28;20056;-43
2021/04/12 05:12:50;;;;;;;14.35;8.10;;;;;;;19.24;23.07;94993.47;5075338;28;20055;-42
2021/04/12 05:15:41;;;;;;;12.70;7.57;;;;;;;19.67;22.70;94990.44;5062324;28;20048;-42
2021/04/12 05:18:26;;;;;;;13.60;6.68;;;;;;;18.95;23.16;94990.91;5074523;28;20048;-42
2021/04/12 05:21:14;;;;;;;10.93;6.50;;;;;;;18.82;23.19;94986.66;5075050;28;20044;-43
2021/04/12 05:24:05;;;;;;;10.05;6.43;;;;;;;18.56;23.44;94984.16;5057822;28;20455;-43
2021/04/12 05:27:04;;;;;;;14.25;6.07;;;;;;;18.93;23.15;94985.94;5057048;28;20126;-47
2021/04/12 05:29:51;;;;;;;13.10;6.82;;;;;;;19.15;22.32;94984.06;5073039;28;20355;-43
2021/04/12 05:32:27;;;;;;;11.23;6.85;;;;;;;20.54;20.59;94970.81;5075253;28;20052;-43
2021/04/12 05:35:25;;;;;;;9.50;5.90;;;;;;;19.72;21.52;94976.19;5075267;28;20048;-43
2021/04/12 05:38:02;;;;;;;11.77;6.05;;;;;;;19.14;22.33;94977.19;5056769;28;20044;-43
2021/04/12 05:40:55;;;;;;;9.55;5.55;;;;;;;19.24;22.74;94982.09;5075106;28;20049;-43
2021/04/12 05:44:00;;;;;;;11.60;6.78;;;;;;;19.80;21.38;94974.56;5057604;28;20056;-42
2021/04/12 05:46:44;;;;;;;9.77;6.53;;;;;;;20.68;19.95;94973.91;5075004;28;20056;-43
2021/04/12 05:49:40;;;;;;;13.80;6.85;;;;;;;19.03;22.73;94961.72;5056811;28;20463;-43
2021/04/12 05:52:42;;;;;;;12.70;6.85;;;;;;;20.85;21.26;94971.00;4958188;28;20058;-43
2021/04/12 05:55:27;;;;;;;10.85;5.95;;;;;;;22.86;18.99;94972.25;5017978;28;20050;-43
2021/04/12 05:57:57;;;;;;;10.02;6.03;;;;;;;22.60;19.34;94970.91;5068578;28;20072;-43
2021/04/12 06:00:30;;;;;;;9.20;5.90;;;;;;;24.17;17.76;94976.59;5069729;28;20048;-43
2021/04/12 06:03:07;;;;;;;9.13;5.82;;;;;;;24.37;16.88;94970.06;5075034;28;20044;-44
2021/04/12 06:05:51;;;;;;;10.43;6.30;;;;;;;25.35;16.23;94974.44;5074811;28;20052;-42
2021/04/12 06:08:56;;;;;;;7.28;5.57;;;;;;;21.64;20.13;94973.16;5057086;28;20048;-42
2021/04/12 06:11:39;;;;;;;7.88;5.10;;;;;;;24.52;16.98;94971.81;5074963;28;20040;-43
2021/04/12 06:14:28;;;;;;;8.82;5.70;;;;;;;25.92;15.84;94968.91;5057123;28;20047;-41
2021/04/12 06:17:28;;;;;;;9.25;5.28;;;;;;;24.09;17.51;94975.72;5057107;28;20064;-42
2021/04/12 06:20:04;;;;;;;7.25;5.82;;;;;;;25.43;16.16;94964.56;5074466;28;20055;-43
2021/04/12 06:22:49;;;;;;;11.60;6.80;;;;;;;20.69;20.71;94970.16;5077073;28;20056;-42
2021/04/12 06:25:40;;;;;;;11.65;6.30;;;;;;;20.42;21.55;94968.19;5078408;28;20059;-42
2021/04/12 06:28:38;;;;;;;11.88;6.63;;;;;;;19.57;22.66;94967.00;5059610;28;20059;-41
2021/04/12 06:31:37;;;;;;;15.35;7.70;;;;;;;20.29;21.76;94973.47;5078159;28;20052;-42
2021/04/12 06:34:45;;;;;;;10.68;6.90;;;;;;;19.25;22.83;94973.81;5060509;28;20064;-42
2021/04/12 06:37:54;;;;;;;10.40;6.20;;;;;;;20.35;21.92;94975.94;5044015;28;20048;-40
2021/04/12 06:40:45;;;;;;;9.38;6.88;;;;;;;20.13;22.22;94985.88;5078130;28;20087;-41
2021/04/12 06:43:44;;;;;;;8.95;6.22;;;;;;;20.02;22.51;94969.59;5078204;28;20055;-41
2021/04/12 06:46:48;;;;;;;11.90;6.43;;;;;;;20.24;22.06;94976.34;5077163;28;20044;-41
2021/04/12 06:49:37;;;;;;;9.40;7.07;;;;;;;19.68;22.27;94976.06;5060216;28;20053;-41
2021/04/12 06:52:17;;;;;;;10.90;6.72;;;;;;;21.24;20.69;94963.38;5077971;28;20082;-43
2021/04/12 06:54:54;;;;;;;12.00;7.40;;;;;;;21.15;20.71;94965.38;5078019;28;20048;-43
2021/04/12 06:57:55;;;;;;;12.30;7.90;;;;;;;21.17;21.38;94968.47;5077021;28;20049;-42
2021/04/12 07:00:25;;;;;;;9.52;7.20;;;;;;;21.07;21.47;94969.69;5060254;28;20048;-41
2021/04/12 07:03:14;;;;;;;12.32;7.25;;;;;;;21.04;21.96;94972.25;5078233;28;20055;-43
2021/04/12 07:05:59;;;;;;;12.38;7.50;;;;;;;21.61;20.65;94960.53;5077598;28;20048;-43
2021/04/12 07:08:48;;;;;;;11.27;6.93;;;;;;;22.03;20.81;94955.50;5077239;28;20051;-45
2021/04/12 07:11:30;;;;;;;10.32;6.57;;;;;;;22.80;19.96;94966.38;5077593;28;20366;-41
2021/04/12 07:14:42;;;;;;;9.15;6.45;;;;;;;22.05;20.24;94969.25;5077546;28;20041;-42
2021/04/12 07:17:35;;;;;;;14.63;7.72;;;;;;;23.26;19.18;94967.34;5077497;28;20051;-42
2021/04/12 07:20:24;;;;;;;11.30;6.90;;;;;;;24.55;17.97;94971.09;5077240;28;20045;-43
2021/04/12 07:23:29;;;;;;;12.70;7.37;;;;;;;25.15;18.02;94965.78;5077466;28;20067;-44
2021/04/12 07:26:18;;;;;;;9.03;7.10;;;;;;;24.17;18.95;94971.25;5059761;28;20048;-42
2021/04/12 07:29:03;;;;;;;12.57;8.75;;;;;;;24.97;17.38;94964.00;5076698;28;20314;-43
2021/04/12 07:31:39;;;;;;;14.13;7.97;;;;;;;24.15;18.76;94962.81;5076378;28;20045;-43
2021/04/12 07:34:50;;;;;;;16.48;11.02;;;;;;;24.02;18.56;94958.81;5076443;28;20055;-44
2021/04/12 07:37:29;;;;;;;14.75;11.68;;;;;;;27.28;15.03;94947.97;5059464;28;20040;-42
2021/04/12 07:40:27;;;;;;;15.13;11.70;;;;;;;26.96;15.82;94944.38;5076081;28;20036;-43
2021/04/12 07:43:16;;;;;;;17.35;10.55;;;;;;;25.36;16.87;94940.44;5077159;28;20339;-43
2021/04/12 07:46:08;;;;;;;13.48;10.32;;;;;;;24.74;18.47;94940.06;5076894;28;20048;-42
2021/04/12 07:49:07;;;;;;;17.63;9.95;;;;;;;26.39;17.37;94946.75;5076447;28;20530;-43
2021/04/12 07:52:12;;;;;;;12.27;9.50;;;;;;;26.14;17.31;94935.81;5058904;28;20395;-45
2021/04/12 07:55:00;;;;;;;15.48;10.07;;;;;;;26.13;15.77;94931.59;5076750;28;20045;-43
2021/04/12 07:57:52;;;;;;;13.50;9.50;;;;;;;25.44;16.90;94934.78;5075851;28;20060;-44
2021/04/12 08:00:56;;;;;;;12.10;9.13;;;;;;;24.34;18.08;94928.03;5076302;28;20048;-50
2021/04/12 08:03:37;;;;;;;12.52;9.60;;;;;;;26.88;16.56;94924.03;5076552;28;20045;-44
2021/04/12 08:06:42;;;;;;;15.60;9.40;;;;;;;27.22;15.91;94929.94;5076179;28;20455;-43
2021/04/12 08:09:31;;;;;;;16.33;8.90;;;;;;;25.67;17.86;94929.28;5076227;28;20049;-43
2021/04/12 08:12:17;;;;;;;13.13;8.90;;;;;;;26.21;17.58;94925.13;5076546;28;20048;-44
2021/04/12 08:15:21;;;;;;;14.75;8.77;;;;;;;28.01;16.26;94931.63;5076366;28;20048;-44
2021/04/12 08:18:07;;;;;;;13.73;8.50;;;;;;;28.86;15.11;94931.56;5059116;28;20060;-45
2021/04/12 08:20:56;;;;;;;15.25;9.15;;;;;;;28.28;14.71;94923.97;5076033;28;20040;-44
2021/04/12 08:24:01;;;;;;;15.63;11.40;;;;;;;27.66;15.40;94928.94;5076451;28;20052;-44
2021/04/12 08:26:50;;;;;;;20.52;11.55;;;;;;;28.08;14.83;94910.13;5066880;28;20384;-43
2021/04/12 08:29:50;;;;;;;22.27;14.93;;;;;;;28.25;15.43;94914.75;5076058;28;20059;-43
2021/04/12 08:32:51;;;;;;;20.42;11.23;;;;;;;28.78;15.06;94908.50;5076027;28;20044;-46
2021/04/12 08:35:31;;;;;;;15.75;10.48;;;;;;;29.24;14.91;94891.44;5076146;28;20048;-45
2021/04/12 08:38:31;;;;;;;14.45;10.20;;;;;;;29.25;15.40;94909.13;5075504;28;20051;-44
2021/04/12 08:41:36;;;;;;;22.63;11.48;;;;;;;28.91;15.24;94905.44;5075842;28;20079;-42
2021/04/12 08:44:10;;;;;;;17.08;11.52;;;;;;;29.20;13.75;94896.06;5075265;28;20048;-49
2021/04/12 08:47:14;;;;;;;17.25;11.75;;;;;;;27.85;15.67;94899.78;5074810;28;20060;-44
2021/04/12 08:50:12;;;;;;;17.42;12.00;;;;;;;29.49;14.01;94893.25;5076075;28;20328;-44
2021/04/12 08:52:58;;;;;;;32.13;21.33;;;;;;;29.41;15.06;94889.81;5075619;28;20041;-45
2021/04/12 08:56:02;;;;;;;17.73;10.88;;;;;;;31.04;13.40;94886.84;5074872;28;20059;-43
2021/04/12 08:59:07;;;;;;;16.13;10.75;;;;;;;29.30;14.58;94879.09;5057369;28;20055;-42
2021/04/12 09:02:11;;;;;;;15.38;10.60;;;;;;;30.38;14.45;94879.84;5075519;28;20044;-43
2021/04/12 09:05:17;;;;;;;12.20;10.25;;;;;;;30.75;14.18;94872.94;5075317;28;20055;-45
2021/04/12 09:08:18;;;;;;;16.58;9.82;;;;;;;31.16;13.98;94872.78;5075073;28;20044;-50
2021/04/12 09:11:22;;;;;;;12.95;9.68;;;;;;;30.01;14.89;94873.22;5026217;28;20059;-44
2021/04/12 09:14:18;;;;;;;14.57;10.00;;;;;;;30.30;14.53;94857.56;5075752;28;20040;-44
2021/04/12 09:17:10;;;;;;;16.98;10.05;;;;;;;31.23;14.01;94865.41;5057457;28;20052;-42
2021/04/12 09:19:43;;;;;;;17.00;10.25;;;;;;;31.14;13.45;94865.09;5075264;28;20064;-44
2021/04/12 09:22:38;;;;;;;12.40;9.75;;;;;;;31.23;13.68;94853.84;5057681;28;20037;-43
2021/04/12 09:25:37;;;;;;;14.15;8.85;;;;;;;31.19;13.59;94853.88;5057666;28;20060;-43
2021/04/12 09:28:26;;;;;;;13.73;9.98;;;;;;;32.34;12.06;94840.13;5075008;28;20071;-44
2021/04/12 09:31:06;;;;;;;17.50;10.65;;;;;;;30.73;13.62;94840.97;5075481;28;20350;-43
2021/04/12 09:33:54;;;;;;;18.25;9.70;;;;;;;32.10;13.17;94841.31;5072436;28;20052;-42
2021/04/12 09:36:46;;;;;;;11.82;9.23;;;;;;;31.58;13.31;94839.81;5074969;28;20044;-43
2021/04/12 09:39:51;;;;;;;14.52;9.82;;;;;;;31.55;13.25;94829.06;5070825;28;20045;-43
2021/04/12 09:42:31;;;;;;;14.80;9.18;;;;;;;32.67;12.66;94826.75;5059799;28;20045;-44
2021/04/12 09:45:35;;;;;;;12.60;9.38;;;;;;;31.80;13.30;94829.47;5075233;28;20060;-42
2021/04/12 09:48:27;;;;;;;21.45;10.60;;;;;;;31.90;13.31;94825.81;5074467;28;20048;-42
2021/04/12 09:51:18;;;;;;;18.23;9.80;;;;;;;32.27;12.88;94824.03;5075032;28;20063;-52
2021/04/12 09:54:17;;;;;;;11.85;10.45;;;;;;;31.90;13.42;94816.94;5074937;28;20465;-49
2021/04/12 09:57:08;;;;;;;14.80;10.88;;;;;;;31.97;13.59;94816.03;5076631;28;20048;-41
2021/04/12 09:59:51;;;;;;;11.48;9.45;;;;;;;32.12;12.91;94811.91;5079055;28;20044;-47
2021/04/12 10:02:40;;;;;;;17.90;10.18;;;;;;;31.86;13.49;94811.59;5078880;28;20048;-43
2021/04/12 10:05:17;;;;;;;14.77;10.63;;;;;;;32.34;12.73;94798.81;5061266;28;20041;-43
2021/04/12 10:08:03;;;;;;;14.18;10.80;;;;;;;31.64;13.36;94804.97;5061063;28;20057;-43
2021/04/12 10:11:00;;;;;;;13.15;10.48;;;;;;;31.67;13.26;94804.16;5078741;28;20040;-41
2021/04/12 10:13:57;;;;;;;12.98;10.27;;;;;;;31.60;12.85;94794.22;5061429;28;20048;-44
2021/04/12 10:16:28;;;;;;;13.85;9.60;;;;;;;32.25;12.86;94791.19;5078612;28;20051;-44
2021/04/12 10:19:17;;;;;;;22.25;13.95;;;;;;;32.79;12.42;94785.53;5060566;28;20355;-45
2021/04/12 10:22:05;;;;;;;15.95;10.02;;;;;;;32.89;12.40;94781.84;5061039;28;20459;-44
2021/04/12 10:24:55;;;;;;;20.20;13.63;;;;;;;32.44;12.41;94778.88;5060903;28;20056;-43
2021/04/12 10:27:47;;;;;;;17.42;13.25;;;;;;;34.24;11.50;94783.31;5078149;28;20060;-44
2021/04/12 10:30:36;;;;;;;14.13;9.18;;;;;;;32.85;12.93;94780.41;5060666;28;20474;-43
2021/04/12 10:33:08;;;;;;;17.23;9.35;;;;;;;32.87;12.22;94776.09;5060800;28;20056;-43
2021/04/12 10:35:49;;;;;;;18.55;8.90;;;;;;;33.51;12.44;94766.53;5061005;28;20048;-44
2021/04/12 10:38:32;;;;;;;15.25;8.85;;;;;;;32.37;13.61;94766.25;5060423;28;20409;-43
2021/04/12 10:41:26;;;;;;;17.08;8.30;;;;;;;32.97;12.69;94766.22;5060471;28;20052;-44
2021/04/12 10:43:59;;;;;;;14.00;8.20;;;;;;;32.00;13.05;94761.13;5059860;28;20048;-44
2021/04/12 10:46:38;;;;;;;12.25;7.60;;;;;;;32.74;12.81;94761.63;5077666;28;20067;-42
2021/04/12 10:49:10;;;;;;;10.00;7.13;;;;;;;32.48;13.57;94757.94;5060186;28;20060;-42
2021/04/12 10:51:40;;;;;;;;;;;;;;;33.53;12.26;94758.72;5061172;28;20497;-43
2021/04/12 10:54:58;;;;;;;15.57;7.43;;;;;;;33.86;12.08;94758.75;5077885;28;19913;-42
2021/04/12 10:57:25;;;;;;;11.63;6.90;;;;;;;34.07;12.04;94752.75;5077391;28;20064;-44
2021/04/12 11:00:12;;;;;;;10.02;6.38;;;;;;;32.92;12.86;94759.34;5077906;28;20040;-44
2021/04/12 11:03:17;;;;;;;10.05;6.68;;;;;;;32.11;13.80;94748.19;5059946;28;20057;-43
2021/04/12 11:05:49;;;;;;;9.38;6.18;;;;;;;32.63;13.34;94736.75;5077315;28;20045;-44
2021/04/12 11:08:54;;;;;;;10.20;6.00;;;;;;;32.52;13.42;94731.56;5061189;28;20040;-44
2021/04/12 11:11:42;;;;;;;11.48;6.30;;;;;;;33.49;13.11;94724.78;5060208;28;20452;-42
2021/04/12 11:14:33;;;;;;;10.93;5.72;;;;;;;33.37;12.81;94720.81;5060309;28;20048;-43
2021/04/12 11:17:08;;;;;;;11.93;6.57;;;;;;;33.51;12.76;94725.13;5077535;28;20064;-42
2021/04/12 11:19:39;;;;;;;16.73;10.93;;;;;;;34.63;11.55;94723.31;5077489;28;20052;-42
2021/04/12 11:22:12;;;;;;;10.67;7.77;;;;;;;33.42;12.43;94714.88;5059826;28;20083;-43
2021/04/12 11:25:11;;;;;;;9.60;5.90;;;;;;;34.06;11.85;94713.25;5059733;28;20274;-41
2021/04/12 11:27:44;;;;;;;27.75;14.85;;;;;;;34.40;11.68;94710.03;5076556;28;20406;-44
2021/04/12 11:30:14;;;;;;;13.38;8.93;;;;;;;33.81;12.02;94702.28;5059897;28;20040;-44
2021/04/12 11:32:47;;;;;;;8.60;5.75;;;;;;;34.61;11.63;94709.41;5077061;28;20063;-43
2021/04/12 11:35:29;;;;;;;12.45;5.88;;;;;;;32.61;12.21;94707.41;5077148;28;20044;-50
2021/04/12 11:38:12;;;;;;;8.50;5.10;;;;;;;32.22;12.49;94694.66;5059658;28;20048;-43
2021/04/12 11:41:11;;;;;;;11.30;5.25;;;;;;;33.57;12.11;94694.38;5059467;28;20052;-44
2021/04/12 11:43:41;;;;;;;8.25;4.78;;;;;;;33.13;13.13;94692.34;5059410;28;20056;-44
2021/04/12 11:46:44;;;;;;;14.18;4.80;;;;;;;32.88;12.65;94687.53;5058932;28;20059;-51
2021/04/12 11:49:28;;;;;;;12.88;4.10;;;;;;;32.29;12.69;94694.56;5077005;28;20060;-43
2021/04/12 11:52:12;;;;;;;7.57;4.32;;;;;;;32.62;12.92;94691.94;5076975;28;20049;-48
2021/04/12 11:55:13;;;;;;;10.07;4.05;;;;;;;33.80;11.77;94679.06;5059255;28;20052;-52
2021/04/12 11:58:05;;;;;;;8.45;3.97;;;;;;;33.52;12.14;94681.34;5058764;28;20053;-51
2021/04/12 12:00:48;;;;;;;11.93;4.78;;;;;;;35.05;10.74;94681.72;5077090;28;20052;-44
2021/04/12 12:03:21;;;;;;;10.10;3.88;;;;;;;34.57;11.37;94686.25;5059130;28;20047;-42
2021/04/12 12:06:15;;;;;;;7.10;3.83;;;;;;;35.02;10.89;94677.16;5076221;28;20052;-43
2021/04/12 12:09:01;;;;;;;6.45;3.17;;;;;;;33.60;11.35;94669.16;5059032;28;20048;-43
2021/04/12 12:12:16;;;;;;;12.45;3.50;;;;;;;34.38;11.28;94660.09;5076469;28;20052;-43
2021/04/12 12:14:43;;;;;;;9.73;3.83;;;;;;;34.25;11.50;94651.91;4987460;28;20046;-45
2021/04/12 12:17:23;;;;;;;9.27;4.55;;;;;;;34.23;11.02;94646.13;5076715;28;20040;-43
2021/04/12 12:20:12;;;;;;;7.57;4.57;;;;;;;33.76;11.00;94641.22;5059014;28;20083;-44
2021/04/12 12:22:59;;;;;;;6.13;3.55;;;;;;;33.41;11.44;94648.34;5025820;28;20451;-43
2021/04/12 12:25:33;;;;;;;10.85;3.83;;;;;;;35.21;10.54;94641.59;5058622;28;20061;-43
2021/04/12 12:28:13;;;;;;;7.20;3.60;;;;;;;34.84;10.95;94642.41;5075840;28;20051;-44
2021/04/12 12:30:49;;;;;;;6.82;3.08;;;;;;;34.27;11.30;94641.38;5076079;28;20455;-44
2021/04/12 12:33:25;;;;;;;9.25;3.70;;;;;;;34.24;11.35;94642.22;5076361;28;20055;-43
2021/04/12 12:36:10;;;;;;;6.03;3.63;;;;;;;33.44;11.72;94631.22;5074632;28;20048;-43
2021/04/12 12:38:54;;;;;;;8.68;4.03;;;;;;;33.43;11.75;94624.28;5057534;28;20044;-43
2021/04/12 12:41:25;;;;;;;8.27;3.95;;;;;;;34.40;11.69;94625.16;5058442;28;20052;-44
2021/04/12 12:43:59;;;;;;;8.75;3.22;;;;;;;34.10;11.35;94629.84;5058342;28;20378;-42
2021/04/12 12:46:28;;;;;;;9.95;3.67;;;;;;;33.79;11.60;94623.31;5075342;28;20044;-44
2021/04/12 12:49:15;;;;;;;13.95;4.20;;;;;;;33.57;11.55;94621.22;5058347;28;20053;-45
2021/04/12 12:51:53;;;;;;;9.20;4.00;;;;;;;34.17;10.98;94610.66;5058265;28;20048;-43
2021/04/12 12:54:39;;;;;;;6.10;3.50;;;;;;;33.82;11.13;94611.63;5057914;28;20051;-44
2021/04/12 12:57:08;;;;;;;7.35;4.00;;;;;;;33.85;11.33;94606.16;5074752;28;20060;-43
2021/04/12 12:59:39;;;;;;;8.85;3.45;;;;;;;34.04;11.30;94604.44;5058195;28;20052;-42
2021/04/12 13:02:36;;;;;;;7.88;4.35;;;;;;;33.99;10.91;94599.56;5057740;28;20466;-44
2021/04/12 13:05:20;;;;;;;12.80;4.70;;;;;;;32.95;12.22;94593.34;5056487;28;20053;-42